Time;durP1;ratioP1;P1;durP2;ratioP2;P2;SDS_P1;SDS_P2;PMS_P1;PMS_P2;Temp;Humidity;BMP_temperature;BMP_pressure;BME280_temperature;BME280_humidity;BME280_pressure;Samples;Min_cycle;Max_cycle;Signal;HPM_P1;HPM_P2
2023/05/02 00:01:04;;;;;;;6.10;2.27;;;9.50;99.90;;;;;;5036132;28;20041;-72
2023/05/02 00:03:31;;;;;;;7.73;3.00;;;9.50;99.90;;;;;;5025515;28;20037;-72
2023/05/02 00:05:58;;;;;;;10.80;3.03;;;9.50;99.90;;;;;;5020190;28;20041;-72
2023/05/02 00:08:24;;;;;;;9.00;2.90;;;9.50;99.90;;;;;;5031721;28;20394;-72
2023/05/02 00:10:50;;;;;;;6.83;3.10;;;9.50;99.90;;;;;;5044971;28;20037;-72
2023/05/02 00:13:15;;;;;;;9.50;2.53;;;9.50;99.90;;;;;;5025621;28;20034;-72
2023/05/02 00:15:41;;;;;;;7.13;2.70;;;9.50;99.90;;;;;;5040358;28;20476;-72
2023/05/02 00:18:07;;;;;;;6.57;2.73;;;9.50;99.90;;;;;;5050276;28;20371;-72
2023/05/02 00:20:32;;;;;;;8.03;2.53;;;9.50;99.90;;;;;;5019061;28;20076;-72
2023/05/02 00:22:58;;;;;;;7.73;2.60;;;9.40;99.90;;;;;;5019443;28;20053;-72
2023/05/02 00:25:24;;;;;;;6.60;2.23;;;9.40;99.90;;;;;;5018363;28;20045;-72
2023/05/02 00:27:50;;;;;;;8.27;2.50;;;9.30;99.90;;;;;;5046410;28;20040;-72
2023/05/02 00:30:17;;;;;;;6.80;2.10;;;9.20;99.90;;;;;;5030529;28;20124;-72
2023/05/02 00:32:43;;;;;;;6.22;2.13;;;9.20;99.90;;;;;;5021961;28;20563;-72
2023/05/02 00:35:09;;;;;;;5.00;1.63;;;9.20;99.90;;;;;;5026764;28;20497;-72
2023/05/02 00:37:35;;;;;;;4.97;1.50;;;9.20;99.90;;;;;;5045957;28;20041;-72
2023/05/02 00:40:02;;;;;;;4.40;1.80;;;9.20;99.90;;;;;;5023854;28;20041;-72
2023/05/02 00:42:30;;;;;;;4.13;1.13;;;9.20;99.90;;;;;;5024387;28;20179;-72
2023/05/02 00:44:56;;;;;;;3.88;1.20;;;9.20;99.90;;;;;;5026868;28;20507;-72
2023/05/02 00:47:22;;;;;;;3.90;1.80;;;9.10;99.90;;;;;;5047304;28;20049;-72
2023/05/02 00:49:51;;;;;;;7.38;1.70;;;9.10;99.90;;;;;;5045730;28;20056;-72
2023/05/02 00:52:17;;;;;;;4.90;1.63;;;9.10;99.90;;;;;;5020537;28;20041;-72
2023/05/02 00:54:43;;;;;;;4.82;1.67;;;9.10;99.90;;;;;;5024499;28;20052;-72
2023/05/02 00:57:08;;;;;;;5.77;2.10;;;9.20;99.90;;;;;;5029687;28;20409;-72
2023/05/02 00:59:35;;;;;;;4.17;1.43;;;9.10;99.90;;;;;;5024387;28;20037;-72
2023/05/02 01:02:31;;;;;;;6.57;1.80;;;9.20;99.90;;;;;;5043853;28;20045;-72
2023/05/02 01:05:13;;;;;;;11.63;2.63;;;9.20;99.90;;;;;;5029940;28;20041;-72
2023/05/02 01:08:01;;;;;;;10.38;3.35;;;9.10;99.90;;;;;;5028991;28;20060;-72
2023/05/02 01:10:49;;;;;;;12.07;3.60;;;9.10;99.90;;;;;;5018257;28;20057;-72
2023/05/02 01:13:30;;;;;;;14.80;3.85;;;9.10;99.90;;;;;;5029732;28;20041;-72
2023/05/02 01:16:00;;;;;;;15.20;4.20;;;9.10;99.90;;;;;;5020966;28;20084;-72
2023/05/02 01:18:32;;;;;;;15.80;3.75;;;9.00;99.90;;;;;;5039727;28;20029;-72
2023/05/02 01:21:02;;;;;;;17.85;4.07;;;9.00;99.90;;;;;;5046885;28;20127;-72
2023/05/02 01:23:58;;;;;;;21.58;4.50;;;9.00;99.90;;;;;;5046814;28;20083;-72
2023/05/02 01:26:48;;;;;;;17.88;4.30;;;8.90;99.90;;;;;;5028960;28;20666;-72
2023/05/02 01:29:14;;;;;;;17.88;3.60;;;8.80;99.90;;;;;;5025348;28;20125;-72
2023/05/02 01:31:43;;;;;;;20.52;4.70;;;8.80;99.90;;;;;;5036155;28;20095;-72
2023/05/02 01:34:10;;;;;;;16.88;4.00;;;8.70;99.90;;;;;;5024220;28;20124;-72
2023/05/02 01:36:41;;;;;;;18.58;4.03;;;8.70;99.90;;;;;;5041047;28;20047;-72
2023/05/02 01:39:09;;;;;;;24.27;4.15;;;8.70;99.90;;;;;;5046458;28;20040;-72
2023/05/02 01:41:36;;;;;;;14.73;3.70;;;8.60;99.90;;;;;;5045108;28;20441;-72
2023/05/02 01:44:04;;;;;;;20.58;3.88;;;8.50;99.90;;;;;;5027744;28;20063;-73
2023/05/02 01:46:37;;;;;;;18.60;3.47;;;8.40;99.90;;;;;;5039850;28;20491;-73
2023/05/02 01:49:06;;;;;;;18.70;3.60;;;8.40;99.90;;;;;;5029724;28;20041;-72
2023/05/02 01:51:34;;;;;;;20.50;3.88;;;8.40;99.90;;;;;;5030300;28;20079;-72
2023/05/02 01:54:07;;;;;;;20.27;4.55;;;8.30;99.90;;;;;;5028393;28;20045;-72
2023/05/02 01:56:38;;;;;;;19.63;4.90;;;8.30;99.90;;;;;;5042948;28;20106;-72
2023/05/02 01:59:34;;;;;;;19.33;4.82;;;8.30;99.90;;;;;;5040718;28;20059;-72
2023/05/02 02:02:01;;;;;;;;;;;8.20;99.90;;;;;;5014083;28;20045;-72
2023/05/02 02:04:28;;;;;;;22.77;4.40;;;8.20;99.90;;;;;;5041771;28;20186;-72
2023/05/02 02:07:07;;;;;;;20.48;4.95;;;8.10;99.90;;;;;;5013699;28;20412;-72
2023/05/02 02:09:33;;;;;;;15.73;3.80;;;8.10;99.90;;;;;;5042247;28;20041;-72
2023/05/02 02:12:11;;;;;;;18.55;4.40;;;8.10;99.90;;;;;;5028018;28;20069;-73
2023/05/02 02:14:40;;;;;;;20.27;4.82;;;8.10;99.90;;;;;;5044101;28;20045;-72
2023/05/02 02:17:24;;;;;;;22.50;5.72;;;8.00;99.90;;;;;;5014866;28;20041;-72
2023/05/02 02:19:53;;;;;;;23.95;5.43;;;8.00;99.90;;;;;;5024417;28;20063;-72
2023/05/02 02:22:22;;;;;;;18.85;4.32;;;8.00;99.90;;;;;;5039361;28;20045;-72
2023/05/02 02:24:48;;;;;;;19.33;4.38;;;8.00;99.90;;;;;;5048627;28;20769;-72
2023/05/02 02:27:14;;;;;;;19.90;4.72;;;7.90;99.90;;;;;;5031405;28;20553;-72
2023/05/02 02:29:40;;;;;;;19.35;4.13;;;7.90;99.90;;;;;;5031888;28;20128;-72
2023/05/02 02:32:06;;;;;;;16.00;4.80;;;7.90;99.90;;;;;;5048660;28;20127;-72
2023/05/02 02:34:31;;;;;;;23.47;5.00;;;7.80;99.90;;;;;;5049037;28;20037;-72
2023/05/02 02:37:03;;;;;;;19.50;3.90;;;7.80;99.90;;;;;;5046103;28;20041;-72
2023/05/02 02:39:45;;;;;;;17.25;3.65;;;7.70;99.90;;;;;;5041924;28;20045;-72
2023/05/02 02:42:17;;;;;;;15.55;3.50;;;7.70;99.90;;;;;;5063709;28;20436;-72
2023/05/02 02:45:15;;;;;;;21.00;3.55;;;7.70;99.90;;;;;;5030618;28;20493;-72
2023/05/02 02:48:21;;;;;;;16.27;3.60;;;7.70;99.90;;;;;;5043975;28;20046;-72
2023/05/02 02:51:22;;;;;;;15.93;3.42;;;7.60;99.90;;;;;;5046610;28;20087;-72
2023/05/02 02:53:50;;;;;;;13.85;3.25;;;7.60;99.90;;;;;;5029030;28;20045;-72
2023/05/02 02:56:26;;;;;;;13.52;3.42;;;7.60;99.90;;;;;;5045716;28;20038;-72
2023/05/02 02:59:28;;;;;;;15.60;3.00;;;7.60;99.90;;;;;;5046526;28;20300;-72
2023/05/02 03:02:08;;;;;;;11.45;3.40;;;7.50;99.90;;;;;;5012155;28;20053;-73
2023/05/02 03:04:36;;;;;;;14.20;3.45;;;7.50;99.90;;;;;;5028546;28;20053;-72
2023/05/02 03:07:03;;;;;;;17.77;4.45;;;7.50;99.90;;;;;;5050503;28;20056;-72
2023/05/02 03:09:40;;;;;;;19.77;3.58;;;7.50;99.90;;;;;;5047463;28;20553;-72
2023/05/02 03:12:06;;;;;;;21.90;4.20;;;7.50;99.90;;;;;;5046931;28;20049;-73
2023/05/02 03:14:32;;;;;;;16.03;3.63;;;7.50;99.90;;;;;;5033181;28;20386;-72
2023/05/02 03:16:57;;;;;;;23.10;4.30;;;7.40;99.90;;;;;;5046906;28;20294;-72
2023/05/02 03:19:23;;;;;;;16.90;4.30;;;7.40;99.90;;;;;;5040326;28;20176;-72
2023/05/02 03:21:49;;;;;;;14.13;3.27;;;7.40;99.90;;;;;;5034187;28;20029;-72
2023/05/02 03:24:15;;;;;;;14.37;3.37;;;7.30;99.90;;;;;;5041709;28;20079;-72
2023/05/02 03:26:41;;;;;;;16.15;2.88;;;7.30;99.90;;;;;;5032268;28;20056;-72
2023/05/02 03:29:07;;;;;;;18.30;3.17;;;7.30;99.90;;;;;;5030885;28;20044;-72
2023/05/02 03:31:32;;;;;;;14.57;3.13;;;7.30;99.90;;;;;;5017542;28;20047;-72
2023/05/02 03:33:58;;;;;;;14.17;2.47;;;7.20;99.90;;;;;;5042886;28;20520;-72
2023/05/02 03:36:24;;;;;;;13.70;3.47;;;7.20;99.90;;;;;;5031145;28;20669;-72
2023/05/02 03:38:50;;;;;;;12.17;2.70;;;7.20;99.90;;;;;;5032361;28;20037;-72
2023/05/02 03:41:15;;;;;;;12.87;2.57;;;7.20;99.90;;;;;;5034994;28;20065;-72
2023/05/02 03:43:41;;;;;;;15.20;2.97;;;7.20;99.90;;;;;;5033812;28;20053;-72
2023/05/02 03:46:08;;;;;;;9.43;2.37;;;7.20;99.90;;;;;;5027526;28;20040;-72
2023/05/02 03:48:34;;;;;;;13.43;2.30;;;7.20;99.90;;;;;;5044336;28;20053;-72
2023/05/02 03:51:01;;;;;;;14.60;2.78;;;7.20;99.90;;;;;;5027054;28;20040;-72
2023/05/02 03:53:28;;;;;;;14.88;2.38;;;7.20;99.90;;;;;;5045986;28;20128;-72
2023/05/02 03:55:54;;;;;;;14.35;2.70;;;7.20;99.90;;;;;;5030692;28;20044;-72
2023/05/02 03:58:20;;;;;;;15.60;2.43;;;7.20;99.90;;;;;;5025827;28;20041;-72
2023/05/02 04:00:46;;;;;;;12.05;2.42;;;7.20;99.90;;;;;;5026786;28;20033;-72
2023/05/02 04:03:12;;;;;;;11.53;2.47;;;7.10;99.90;;;;;;5036688;28;20041;-71
2023/05/02 04:05:38;;;;;;;17.10;2.40;;;7.20;99.90;;;;;;5037779;28;20048;-71
2023/05/02 04:08:03;;;;;;;10.43;2.33;;;7.10;99.90;;;;;;5038999;28;20045;-71
2023/05/02 04:10:29;;;;;;;9.30;1.77;;;7.10;99.90;;;;;;5040960;28;20485;-71
2023/05/02 04:12:55;;;;;;;10.37;2.47;;;7.10;99.90;;;;;;5040136;28;20303;-71
2023/05/02 04:15:21;;;;;;;9.80;1.90;;;7.10;99.90;;;;;;5047212;28;20103;-71
2023/05/02 04:17:46;;;;;;;11.73;1.57;;;7.10;99.90;;;;;;5047097;28;20045;-71
2023/05/02 04:20:12;;;;;;;6.40;1.60;;;7.00;99.90;;;;;;5041333;28;20120;-71
2023/05/02 04:22:38;;;;;;;13.33;1.63;;;7.00;99.90;;;;;;5042815;28;20044;-71
2023/05/02 04:25:06;;;;;;;6.67;1.30;;;7.00;99.90;;;;;;5046971;28;20680;-71
2023/05/02 04:27:31;;;;;;;10.27;1.75;;;7.00;99.90;;;;;;5031938;28;20523;-71
2023/05/02 04:29:57;;;;;;;5.97;1.43;;;7.00;99.90;;;;;;5031099;28;20041;-71
2023/05/02 04:32:23;;;;;;;7.60;1.47;;;7.00;99.90;;;;;;5030355;28;20053;-71
2023/05/02 04:34:49;;;;;;;7.50;1.40;;;6.90;99.90;;;;;;5019369;28;20068;-71
2023/05/02 04:37:15;;;;;;;8.35;1.40;;;6.90;99.90;;;;;;5045401;28;20037;-71
2023/05/02 04:39:41;;;;;;;6.87;1.40;;;6.90;99.90;;;;;;5047465;28;20037;-71
2023/05/02 04:42:06;;;;;;;9.03;2.07;;;6.90;99.90;;;;;;5046654;28;20404;-71
2023/05/02 04:44:32;;;;;;;7.10;1.27;;;6.90;99.90;;;;;;5042327;28;20072;-71
2023/05/02 04:46:58;;;;;;;7.33;1.63;;;6.90;99.90;;;;;;5024462;28;20560;-71
2023/05/02 04:49:23;;;;;;;11.80;1.70;;;6.90;99.90;;;;;;5025607;28;20406;-71
2023/05/02 04:51:51;;;;;;;6.50;1.50;;;6.90;99.90;;;;;;5022379;28;20037;-71
2023/05/02 04:54:17;;;;;;;7.63;1.23;;;6.90;99.90;;;;;;5025926;28;20086;-71
2023/05/02 04:56:43;;;;;;;7.10;1.50;;;6.90;99.90;;;;;;5027809;28;20041;-71
2023/05/02 04:59:08;;;;;;;7.60;1.90;;;6.90;99.90;;;;;;5029378;28;20041;-71
2023/05/02 05:01:34;;;;;;;7.13;1.27;;;7.00;98.50;;;;;;5039997;28;20037;-71
2023/05/02 05:04:00;;;;;;;8.80;1.67;;;7.00;97.90;;;;;;5026313;28;20512;-71
2023/05/02 05:06:26;;;;;;;8.98;1.85;;;7.00;97.40;;;;;;5041206;28;20043;-71
2023/05/02 05:08:52;;;;;;;7.38;1.98;;;7.10;97.80;;;;;;5047025;28;20100;-71
2023/05/02 05:11:18;;;;;;;10.23;1.50;;;7.10;96.30;;;;;;5030564;28;20075;-71
2023/05/02 05:13:43;;;;;;;5.53;1.37;;;7.10;93.20;;;;;;5026622;28;20133;-71
2023/05/02 05:16:09;;;;;;;5.50;1.30;;;7.10;91.70;;;;;;5026627;28;20067;-71
2023/05/02 05:18:39;;;;;;;5.60;1.30;;;7.10;91.10;;;;;;5029728;28;20037;-71
2023/05/02 05:21:09;;;;;;;7.22;1.27;;;7.10;90.60;;;;;;5047200;28;20045;-71
2023/05/02 05:23:36;;;;;;;8.20;1.25;;;7.10;88.30;;;;;;5046249;28;20044;-71
2023/05/02 05:26:15;;;;;;;7.53;1.40;;;7.20;90.10;;;;;;5042299;28;20427;-71
2023/05/02 05:28:42;;;;;;;12.27;2.33;;;7.20;90.90;;;;;;5029681;28;20041;-71
2023/05/02 05:31:09;;;;;;;4.65;1.20;;;7.20;90.40;;;;;;5030633;28;20412;-71
2023/05/02 05:33:36;;;;;;;5.80;1.20;;;7.20;90.90;;;;;;5030093;28;20116;-71
2023/05/02 05:36:05;;;;;;;5.72;1.30;;;7.20;90.90;;;;;;5026186;28;20485;-71
2023/05/02 05:38:31;;;;;;;7.65;1.10;;;7.20;90.60;;;;;;5033324;28;20037;-71
2023/05/02 05:40:57;;;;;;;7.33;1.53;;;7.20;92.10;;;;;;5039384;28;20049;-71
2023/05/02 05:43:22;;;;;;;7.23;1.50;;;7.20;89.70;;;;;;5041701;28;20038;-71
2023/05/02 05:45:51;;;;;;;9.37;1.80;;;7.20;90.90;;;;;;5042274;28;20087;-70
2023/05/02 05:48:17;;;;;;;7.75;1.77;;;7.20;93.00;;;;;;5019372;28;20049;-70
2023/05/02 05:50:43;;;;;;;5.60;1.93;;;7.30;93.80;;;;;;5023905;28;20416;-70
2023/05/02 05:53:08;;;;;;;12.37;1.80;;;7.30;94.40;;;;;;5030019;28;20088;-70
2023/05/02 05:55:35;;;;;;;9.50;1.60;;;7.30;94.10;;;;;;5039863;28;20068;-70
2023/05/02 05:58:01;;;;;;;10.45;1.98;;;7.40;93.30;;;;;;5029371;28;20041;-70
2023/05/02 06:00:27;;;;;;;8.93;1.80;;;7.50;93.10;;;;;;5025731;28;20074;-71
2023/05/02 06:02:53;;;;;;;9.43;1.57;;;7.50;91.40;;;;;;5027716;28;20128;-70
2023/05/02 06:05:18;;;;;;;6.57;1.57;;;7.50;89.90;;;;;;5049244;28;20424;-70
2023/05/02 06:07:44;;;;;;;6.93;1.47;;;7.60;87.40;;;;;;5038692;28;20064;-70
2023/05/02 06:10:10;;;;;;;7.70;1.43;;;7.60;88.10;;;;;;5049361;28;20137;-70
2023/05/02 06:12:36;;;;;;;11.67;2.37;;;7.70;88.90;;;;;;5037723;28;20721;-70
2023/05/02 06:15:01;;;;;;;8.77;1.80;;;7.70;87.60;;;;;;5065176;28;20128;-70
2023/05/02 06:17:27;;;;;;;10.80;2.13;;;7.80;86.50;;;;;;5033823;28;20479;-70
2023/05/02 06:19:53;;;;;;;6.90;1.70;;;7.80;86.70;;;;;;5046083;28;20083;-71
2023/05/02 06:22:18;;;;;;;12.07;2.10;;;7.80;86.40;;;;;;5041083;28;20037;-70
2023/05/02 06:24:44;;;;;;;9.77;1.67;;;7.80;86.70;;;;;;5029964;28;20048;-70
2023/05/02 06:27:10;;;;;;;8.20;1.90;;;7.90;86.10;;;;;;5038640;28;20045;-70
2023/05/02 06:29:35;;;;;;;13.10;2.17;;;7.90;85.40;;;;;;5048953;28;20386;-70
2023/05/02 06:32:01;;;;;;;9.53;2.43;;;7.90;87.10;;;;;;5033113;28;20083;-70
2023/05/02 06:34:27;;;;;;;9.17;1.80;;;8.00;87.60;;;;;;5046468;28;20439;-70
2023/05/02 06:36:55;;;;;;;11.40;2.27;;;8.10;85.50;;;;;;5050949;28;20072;-71
2023/05/02 06:39:21;;;;;;;8.52;2.40;;;8.10;83.20;;;;;;5032352;28;20397;-72
2023/05/02 06:41:47;;;;;;;6.60;2.07;;;8.20;84.70;;;;;;5029223;28;20382;-71
2023/05/02 06:44:14;;;;;;;10.75;1.63;;;8.30;83.90;;;;;;5043878;28;20061;-70
2023/05/02 06:46:40;;;;;;;8.53;1.90;;;8.40;81.40;;;;;;5031082;28;20464;-71
2023/05/02 06:49:05;;;;;;;5.93;1.60;;;8.50;74.70;;;;;;5049782;28;20209;-71
2023/05/02 06:51:31;;;;;;;9.70;2.00;;;8.60;73.40;;;;;;5045339;28;20045;-70
2023/05/02 06:53:57;;;;;;;7.80;1.73;;;8.80;72.20;;;;;;5046666;28;20071;-71
2023/05/02 06:56:26;;;;;;;7.80;1.85;;;8.80;66.30;;;;;;5029693;28;20052;-71
2023/05/02 06:58:52;;;;;;;10.10;2.22;;;8.80;67.50;;;;;;5022480;28;20069;-71
2023/05/02 07:01:18;;;;;;;8.67;2.10;;;8.90;68.30;;;;;;5033542;28;20560;-71
2023/05/02 07:03:45;;;;;;;9.33;2.20;;;9.00;68.20;;;;;;5039819;28;20033;-71
2023/05/02 07:06:11;;;;;;;10.13;2.28;;;9.00;68.80;;;;;;5027442;28;20060;-71
2023/05/02 07:08:37;;;;;;;10.38;2.30;;;9.10;71.20;;;;;;5030870;28;20041;-71
2023/05/02 07:11:03;;;;;;;8.50;2.10;;;9.10;71.30;;;;;;5033572;28;20060;-71
2023/05/02 07:13:29;;;;;;;10.30;2.07;;;9.10;71.30;;;;;;5051446;28;20564;-72
2023/05/02 07:15:58;;;;;;;7.47;2.25;;;9.10;71.40;;;;;;5051614;28;20612;-71
2023/05/02 07:18:24;;;;;;;10.07;2.10;;;9.10;71.10;;;;;;5052614;28;20048;-71
2023/05/02 07:20:50;;;;;;;9.15;2.15;;;9.10;71.10;;;;;;5037200;28;20095;-71
2023/05/02 07:23:16;;;;;;;9.90;2.07;;;9.00;71.20;;;;;;5053513;28;20110;-71
2023/05/02 07:25:42;;;;;;;9.05;1.83;;;9.10;72.30;;;;;;5046236;28;20278;-72
2023/05/02 07:28:09;;;;;;;7.97;2.20;;;9.30;72.40;;;;;;5046235;28;20386;-72
2023/05/02 07:30:35;;;;;;;7.28;2.45;;;9.30;70.80;;;;;;5027418;28;20153;-71
2023/05/02 07:33:01;;;;;;;8.73;2.03;;;9.20;71.00;;;;;;5029792;28;20712;-71
2023/05/02 07:35:27;;;;;;;5.93;1.80;;;9.10;71.20;;;;;;5025556;28;20060;-71
2023/05/02 07:37:53;;;;;;;11.70;2.40;;;8.90;70.90;;;;;;5027047;28;20456;-71
2023/05/02 07:40:18;;;;;;;8.27;1.83;;;8.80;71.80;;;;;;5040199;28;20586;-72
2023/05/02 07:42:45;;;;;;;10.93;2.00;;;8.70;72.50;;;;;;5030124;28;20045;-71
2023/05/02 07:45:11;;;;;;;10.77;2.40;;;8.70;73.00;;;;;;5035129;28;20053;-71
2023/05/02 07:47:37;;;;;;;7.27;2.37;;;8.60;73.50;;;;;;5044348;28;20094;-71
2023/05/02 07:50:03;;;;;;;9.83;2.23;;;8.60;74.30;;;;;;5041637;28;20715;-72
2023/05/02 07:52:29;;;;;;;9.55;1.95;;;8.60;74.20;;;;;;5042435;28;20072;-72
2023/05/02 07:54:55;;;;;;;9.13;1.95;;;8.70;73.60;;;;;;5023995;28;21052;-71
2023/05/02 07:57:21;;;;;;;12.45;2.90;;;8.70;73.50;;;;;;5027094;28;20041;-71
2023/05/02 07:59:47;;;;;;;9.83;2.10;;;8.80;72.90;;;;;;5032161;28;20409;-71
2023/05/02 08:02:12;;;;;;;11.67;2.43;;;9.00;72.70;;;;;;5041421;28;20037;-72
2023/05/02 08:04:39;;;;;;;6.30;1.80;;;9.20;72.00;;;;;;5039054;28;20405;-71
2023/05/02 08:07:05;;;;;;;13.63;2.42;;;9.40;71.20;;;;;;5020129;28;20067;-71
2023/05/02 08:09:32;;;;;;;6.83;1.93;;;9.50;70.30;;;;;;5047036;28;20045;-71
2023/05/02 08:11:57;;;;;;;7.18;1.70;;;9.50;69.20;;;;;;5041547;28;20124;-71
2023/05/02 08:14:23;;;;;;;7.17;1.70;;;9.60;69.80;;;;;;5025397;28;20124;-71
2023/05/02 08:16:49;;;;;;;7.37;1.73;;;9.70;66.50;;;;;;5044738;28;20045;-71
2023/05/02 08:19:15;;;;;;;7.90;1.47;;;9.70;66.40;;;;;;5027104;28;20045;-71
2023/05/02 08:21:41;;;;;;;5.68;1.35;;;9.70;63.30;;;;;;5043992;28;20053;-71
2023/05/02 08:24:07;;;;;;;8.80;1.45;;;9.60;60.10;;;;;;5031648;28;20049;-71
2023/05/02 08:26:32;;;;;;;7.03;1.30;;;9.70;60.20;;;;;;5030988;28;20048;-71
2023/05/02 08:28:58;;;;;;;8.10;1.70;;;9.90;60.40;;;;;;5047358;28;20056;-71
2023/05/02 08:31:24;;;;;;;9.97;1.40;;;9.90;59.10;;;;;;5041431;28;20051;-72
2023/05/02 08:33:50;;;;;;;9.17;1.37;;;9.90;60.00;;;;;;5038351;28;20555;-71
2023/05/02 08:36:18;;;;;;;7.57;1.53;;;9.90;57.80;;;;;;5041948;28;20041;-71
2023/05/02 08:38:45;;;;;;;9.10;1.80;;;9.80;59.50;;;;;;5028500;28;20051;-71
2023/05/02 08:41:16;;;;;;;7.18;1.23;;;9.80;60.10;;;;;;5028309;28;20515;-71
2023/05/02 08:43:42;;;;;;;5.35;1.30;;;9.90;59.50;;;;;;5042069;28;20047;-71
2023/05/02 08:46:10;;;;;;;7.68;1.50;;;9.90;60.20;;;;;;5028068;28;20057;-71
2023/05/02 08:48:37;;;;;;;8.30;1.52;;;9.90;55.80;;;;;;5019097;28;20041;-71
2023/05/02 08:51:03;;;;;;;3.28;0.70;;;9.90;56.40;;;;;;5041849;28;20465;-71
2023/05/02 08:53:34;;;;;;;5.75;0.70;;;10.00;56.20;;;;;;5041656;28;20434;-71
2023/05/02 08:56:00;;;;;;;4.30;0.82;;;10.20;56.10;;;;;;5024166;28;20052;-71
2023/05/02 08:58:26;;;;;;;6.78;1.10;;;10.40;55.40;;;;;;5027817;28;20098;-71
2023/05/02 09:00:54;;;;;;;2.70;0.80;;;10.50;56.20;;;;;;5027364;28;20501;-70
2023/05/02 09:03:21;;;;;;;3.42;0.88;;;10.40;54.60;;;;;;5026882;28;20044;-70
2023/05/02 09:05:54;;;;;;;4.97;0.80;;;10.30;55.10;;;;;;5041767;28;20457;-72
2023/05/02 09:08:23;;;;;;;6.30;1.10;;;10.30;55.70;;;;;;5036455;28;20388;-70
2023/05/02 09:10:50;;;;;;;4.10;0.80;;;10.50;55.10;;;;;;5025642;28;20073;-70
2023/05/02 09:13:35;;;;;;;5.38;1.00;;;10.50;56.30;;;;;;5041652;28;20079;-70
2023/05/02 09:16:07;;;;;;;7.60;1.17;;;10.50;56.60;;;;;;5040279;28;20041;-70
2023/05/02 09:18:42;;;;;;;7.20;1.50;;;10.60;57.20;;;;;;5025434;28;20041;-70
2023/05/02 09:21:09;;;;;;;;;;;10.60;58.30;;;;;;5044805;28;20615;-70
2023/05/02 09:23:41;;;;;;;6.85;1.25;;;10.60;56.30;;;;;;5022801;28;19917;-71
2023/05/02 09:26:20;;;;;;;5.38;1.17;;;10.70;57.50;;;;;;5028641;28;20551;-70
2023/05/02 09:28:46;;;;;;;7.40;1.15;;;10.80;57.40;;;;;;5044722;28;20501;-70
2023/05/02 09:31:17;;;;;;;5.68;1.30;;;10.90;57.20;;;;;;5026685;28;20041;-71
2023/05/02 09:33:44;;;;;;;5.18;1.10;;;11.10;56.60;;;;;;5025134;28;20037;-71
2023/05/02 09:36:17;;;;;;;3.47;0.87;;;11.30;56.40;;;;;;5044314;28;20115;-71
2023/05/02 09:38:45;;;;;;;4.17;0.93;;;11.60;55.60;;;;;;5039387;28;20276;-71
2023/05/02 09:41:11;;;;;;;3.03;0.70;;;11.70;53.50;;;;;;5045280;28;20285;-71
2023/05/02 09:43:38;;;;;;;6.10;0.80;;;11.80;53.00;;;;;;5029155;28;20275;-71
2023/05/02 09:46:05;;;;;;;4.20;1.00;;;11.70;51.90;;;;;;5049270;28;20041;-71
2023/05/02 09:48:49;;;;;;;3.73;0.80;;;11.60;51.50;;;;;;5018867;28;20287;-71
2023/05/02 09:51:20;;;;;;;3.37;0.77;;;11.70;51.60;;;;;;5042205;28;20286;-71
2023/05/02 09:53:46;;;;;;;4.10;0.80;;;11.70;52.40;;;;;;5046804;28;20375;-71
2023/05/02 09:56:12;;;;;;;4.00;0.90;;;11.80;53.00;;;;;;5050389;28;20283;-71
2023/05/02 09:58:38;;;;;;;5.93;1.10;;;11.80;52.60;;;;;;5027463;28;20276;-71
2023/05/02 10:01:04;;;;;;;3.90;0.90;;;11.70;52.30;;;;;;5050154;28;20060;-71
2023/05/02 10:03:31;;;;;;;6.47;1.00;;;11.80;53.80;;;;;;5049260;28;20045;-71
2023/05/02 10:05:57;;;;;;;6.23;0.90;;;11.90;53.60;;;;;;5044143;28;20294;-71
2023/05/02 10:08:26;;;;;;;4.17;0.80;;;12.10;53.20;;;;;;5049976;28;21042;-70
2023/05/02 10:10:57;;;;;;;2.83;0.80;;;12.00;52.40;;;;;;5032682;28;20366;-70
2023/05/02 10:13:26;;;;;;;5.70;0.80;;;11.90;51.70;;;;;;5033571;28;20374;-70
2023/05/02 10:16:15;;;;;;;2.13;0.50;;;11.90;51.70;;;;;;5030763;28;20307;-70
2023/05/02 10:18:54;;;;;;;1.73;0.40;;;11.70;51.70;;;;;;5023045;28;20305;-70
2023/05/02 10:21:28;;;;;;;3.17;0.90;;;11.60;51.60;;;;;;5033653;28;20275;-70
2023/05/02 10:23:54;;;;;;;4.73;0.70;;;11.60;51.30;;;;;;5044198;28;20299;-70
2023/05/02 10:26:22;;;;;;;2.23;0.43;;;11.80;50.70;;;;;;5031645;28;20759;-70
2023/05/02 10:28:48;;;;;;;3.27;0.40;;;12.00;51.80;;;;;;5031394;28;20284;-70
2023/05/02 10:31:15;;;;;;;4.43;0.63;;;12.40;50.80;;;;;;5049936;28;20287;-70
2023/05/02 10:33:41;;;;;;;4.30;0.80;;;12.70;50.10;;;;;;5049933;28;20284;-70
2023/05/02 10:36:11;;;;;;;2.80;0.77;;;12.90;50.50;;;;;;5030336;28;20660;-71
2023/05/02 10:38:38;;;;;;;3.33;0.43;;;13.10;49.20;;;;;;5051232;28;20299;-72
2023/05/02 10:41:22;;;;;;;6.17;0.80;;;13.10;49.00;;;;;;5051239;28;20302;-72
2023/05/02 10:43:49;;;;;;;4.13;0.73;;;13.00;49.50;;;;;;5050716;28;20283;-72
2023/05/02 10:46:37;;;;;;;2.33;0.53;;;12.70;49.50;;;;;;5049497;28;20354;-73
2023/05/02 10:49:07;;;;;;;5.40;0.80;;;12.50;50.40;;;;;;5024366;28;20292;-72
2023/05/02 10:51:35;;;;;;;2.77;0.70;;;12.30;50.80;;;;;;5029700;28;20296;-72
2023/05/02 10:54:16;;;;;;;5.50;1.03;;;12.10;50.10;;;;;;5028384;28;20288;-71
2023/05/02 10:57:07;;;;;;;1.93;0.60;;;11.90;50.80;;;;;;5035270;28;20791;-72
2023/05/02 10:59:39;;;;;;;4.80;0.80;;;11.90;51.80;;;;;;5033999;28;20775;-72
2023/05/02 11:02:29;;;;;;;3.00;0.70;;;11.90;53.40;;;;;;5031924;28;20275;-71
2023/05/02 11:05:05;;;;;;;9.33;1.20;;;11.90;55.50;;;;;;5018361;28;20363;-72
2023/05/02 11:07:34;;;;;;;2.43;0.80;;;11.90;56.70;;;;;;5049575;28;20290;-73
2023/05/02 11:10:20;;;;;;;8.00;1.20;;;11.80;55.90;;;;;;5049980;28;20744;-72
2023/05/02 11:12:54;;;;;;;3.27;0.80;;;11.60;54.60;;;;;;5029157;28;20316;-72
2023/05/02 11:15:26;;;;;;;5.73;0.90;;;11.50;55.60;;;;;;5024228;28;20353;-72
2023/05/02 11:18:08;;;;;;;6.03;1.00;;;11.60;57.20;;;;;;5029948;28;20783;-72
2023/05/02 11:20:35;;;;;;;5.23;0.90;;;11.80;56.90;;;;;;5021479;28;20284;-72
2023/05/02 11:23:24;;;;;;;3.77;0.83;;;11.90;57.00;;;;;;5031564;28;20284;-72
2023/05/02 11:25:54;;;;;;;5.67;1.00;;;11.90;56.30;;;;;;5043454;28;20292;-72
2023/05/02 11:28:41;;;;;;;4.63;1.00;;;11.70;55.60;;;;;;5028099;28;21006;-72
2023/05/02 11:31:27;;;;;;;4.60;1.03;;;11.70;56.70;;;;;;5045151;28;20675;-72
2023/05/02 11:34:00;;;;;;;4.50;1.00;;;11.80;55.50;;;;;;5057878;28;20873;-71
2023/05/02 11:36:32;;;;;;;3.47;0.80;;;11.80;55.10;;;;;;5038848;28;20282;-71
2023/05/02 11:38:59;;;;;;;3.47;0.77;;;11.70;54.90;;;;;;5029781;28;20284;-70
2023/05/02 11:41:41;;;;;;;5.97;0.90;;;11.80;55.00;;;;;;5043123;28;20281;-71
2023/05/02 11:44:07;;;;;;;4.03;0.80;;;11.80;55.00;;;;;;5045029;28;20297;-71
2023/05/02 11:46:36;;;;;;;3.57;1.10;;;11.80;55.30;;;;;;5046976;28;20291;-71
2023/05/02 11:49:02;;;;;;;2.93;0.70;;;12.20;56.30;;;;;;5037221;28;20276;-71
2023/05/02 11:51:28;;;;;;;3.63;0.80;;;12.30;53.10;;;;;;5028501;28;20290;-72
2023/05/02 11:53:55;;;;;;;4.33;1.20;;;12.50;54.00;;;;;;5037386;28;20049;-71
2023/05/02 11:56:25;;;;;;;6.23;0.73;;;12.60;55.20;;;;;;5045099;28;20112;-70
2023/05/02 11:59:04;;;;;;;3.80;0.93;;;12.60;56.10;;;;;;5028579;28;20330;-72
2023/05/02 12:01:30;;;;;;;4.87;1.23;;;12.50;56.60;;;;;;5017956;28;20275;-72
2023/05/02 12:04:07;;;;;;;3.47;0.80;;;12.20;56.70;;;;;;5042604;28;20592;-71
2023/05/02 12:06:33;;;;;;;2.87;0.73;;;12.20;57.60;;;;;;5026303;28;20311;-72
2023/05/02 12:09:15;;;;;;;5.03;0.70;;;12.40;57.30;;;;;;5029202;28;20562;-71
2023/05/02 12:11:42;;;;;;;5.17;0.70;;;12.40;54.80;;;;;;5026425;28;21142;-72
2023/05/02 12:14:08;;;;;;;4.60;0.80;;;12.60;55.50;;;;;;5049509;28;20303;-72
2023/05/02 12:16:34;;;;;;;5.30;0.70;;;12.90;55.60;;;;;;5039715;28;20523;-72
2023/05/02 12:19:00;;;;;;;2.80;1.07;;;13.00;55.40;;;;;;5046669;28;20288;-71
2023/05/02 12:21:36;;;;;;;3.50;0.97;;;12.80;54.70;;;;;;5049441;28;20341;-72
2023/05/02 12:24:02;;;;;;;4.57;0.90;;;12.60;55.90;;;;;;5040275;28;20041;-72
2023/05/02 12:26:30;;;;;;;1.83;0.70;;;12.40;56.30;;;;;;5048185;28;20291;-72
2023/05/02 12:29:01;;;;;;;2.53;0.50;;;12.40;55.60;;;;;;5018062;28;20387;-72
2023/05/02 12:31:29;;;;;;;3.10;0.40;;;12.70;55.00;;;;;;5040375;28;20275;-71
2023/05/02 12:33:56;;;;;;;3.37;0.50;;;13.00;53.60;;;;;;5027661;28;20287;-71
2023/05/02 12:36:23;;;;;;;3.43;0.60;;;13.10;53.30;;;;;;5040732;28;20288;-72
2023/05/02 12:38:58;;;;;;;4.90;0.67;;;12.90;52.30;;;;;;5045991;28;20323;-71
2023/05/02 12:41:35;;;;;;;3.37;0.80;;;12.60;55.50;;;;;;5020815;28;20772;-71
2023/05/02 12:44:01;;;;;;;4.03;0.93;;;12.40;56.50;;;;;;5016530;28;20320;-72
2023/05/02 12:46:30;;;;;;;4.60;0.60;;;12.30;56.90;;;;;;5032586;28;20730;-72
2023/05/02 12:49:10;;;;;;;3.43;0.50;;;12.10;57.60;;;;;;5049099;28;20317;-72
2023/05/02 12:51:37;;;;;;;3.83;0.50;;;12.10;56.90;;;;;;5047200;28;20279;-71
2023/05/02 12:54:04;;;;;;;2.83;0.43;;;12.00;56.50;;;;;;5029945;28;20279;-71
2023/05/02 12:56:37;;;;;;;4.03;0.50;;;11.90;55.80;;;;;;5032189;28;20754;-71
2023/05/02 12:59:04;;;;;;;2.40;0.70;;;11.90;55.50;;;;;;5046939;28;20639;-72
2023/05/02 13:01:32;;;;;;;2.97;0.50;;;12.00;55.90;;;;;;5047531;28;20325;-71